Time;durP1;ratioP1;P1;durP2;ratioP2;P2;SDS_P1;SDS_P2;PMS_P1;PMS_P2;Temp;Humidity;BMP_temperature;BMP_pressure;BME280_temperature;BME280_humidity;BME280_pressure;Samples;Min_cycle;Max_cycle;Signal;HPM_P1;HPM_P2
2024/02/03 00:00:13;;;;;;;1.20;0.90;;;22.00;48.60;;;;;;5079097;28;20078;-66
2024/02/03 00:02:39;;;;;;;1.30;0.90;;;21.90;48.60;;;;;;5079518;28;20024;-65
2024/02/03 00:05:05;;;;;;;2.47;1.10;;;21.90;48.60;;;;;;5082736;28;20380;-69
2024/02/03 00:07:31;;;;;;;2.22;1.13;;;21.90;48.60;;;;;;5066269;28;20112;-68
2024/02/03 00:09:56;;;;;;;2.00;1.10;;;21.90;48.60;;;;;;5082236;28;20024;-68
2024/02/03 00:12:25;;;;;;;1.75;1.00;;;21.90;48.60;;;;;;5082800;28;20032;-68
2024/02/03 00:14:51;;;;;;;1.27;0.77;;;21.80;48.50;;;;;;5078022;28;20514;-64
2024/02/03 00:17:17;;;;;;;1.92;1.00;;;21.80;48.50;;;;;;5080460;28;20036;-64
2024/02/03 00:19:43;;;;;;;1.10;0.80;;;21.80;48.50;;;;;;5063928;28;20443;-64
2024/02/03 00:22:09;;;;;;;1.63;0.95;;;21.80;48.50;;;;;;5080371;28;20370;-65
2024/02/03 00:24:34;;;;;;;1.58;0.90;;;21.80;48.50;;;;;;5079981;28;20022;-63
2024/02/03 00:27:02;;;;;;;1.40;0.80;;;21.80;48.50;;;;;;5062762;28;20028;-63
2024/02/03 00:29:28;;;;;;;1.88;0.93;;;21.80;48.50;;;;;;5061733;28;20089;-63
2024/02/03 00:31:53;;;;;;;1.70;0.90;;;21.70;48.50;;;;;;5081643;28;20020;-64
2024/02/03 00:34:19;;;;;;;1.30;0.90;;;21.70;48.50;;;;;;5081497;28;20024;-65
2024/02/03 00:36:44;;;;;;;1.70;1.00;;;21.70;48.50;;;;;;5064505;28;20028;-63
2024/02/03 00:39:10;;;;;;;1.50;0.90;;;21.70;48.50;;;;;;5060989;28;20134;-63
2024/02/03 00:41:36;;;;;;;1.77;0.90;;;21.70;48.50;;;;;;5059243;28;20161;-65
2024/02/03 00:44:01;;;;;;;1.77;1.10;;;21.70;48.50;;;;;;5078580;28;20020;-62
2024/02/03 00:46:27;;;;;;;1.40;0.90;;;21.70;48.50;;;;;;5061479;28;20035;-64
2024/02/03 00:48:52;;;;;;;1.50;0.95;;;21.60;48.50;;;;;;5077797;28;20032;-63
2024/02/03 00:51:18;;;;;;;0.98;0.80;;;21.60;48.50;;;;;;5083130;28;20041;-64
2024/02/03 00:53:44;;;;;;;1.58;0.93;;;21.60;48.50;;;;;;5080330;28;20032;-63
2024/02/03 00:56:10;;;;;;;1.40;0.90;;;21.60;48.50;;;;;;5080720;28;20059;-64
2024/02/03 00:58:36;;;;;;;1.58;0.80;;;21.60;48.50;;;;;;5071183;28;20055;-63
2024/02/03 01:01:02;;;;;;;1.50;0.90;;;21.60;48.80;;;;;;5078406;28;20032;-63
2024/02/03 01:03:27;;;;;;;1.33;0.90;;;21.60;48.50;;;;;;5060154;28;20518;-63
2024/02/03 01:05:53;;;;;;;1.63;0.90;;;21.60;48.50;;;;;;5070471;28;20028;-68
2024/02/03 01:08:19;;;;;;;1.65;0.90;;;21.50;48.50;;;;;;5078666;28;20031;-68
2024/02/03 01:10:45;;;;;;;1.85;0.88;;;21.60;48.50;;;;;;5078831;28;20158;-68
2024/02/03 01:13:12;;;;;;;1.30;0.80;;;21.50;48.50;;;;;;5080031;28;20044;-68
2024/02/03 01:15:37;;;;;;;2.00;1.08;;;21.50;48.50;;;;;;5080938;28;20476;-64
2024/02/03 01:18:03;;;;;;;1.40;0.80;;;21.50;48.50;;;;;;5077699;28;20078;-65
2024/02/03 01:20:29;;;;;;;2.40;0.80;;;21.50;48.50;;;;;;5080211;28;20027;-63
2024/02/03 01:22:55;;;;;;;1.30;0.80;;;21.50;48.50;;;;;;5079590;28;20020;-63
2024/02/03 01:25:20;;;;;;;1.40;0.90;;;21.50;48.50;;;;;;5082278;28;20231;-68
2024/02/03 01:27:46;;;;;;;1.33;0.90;;;21.50;48.50;;;;;;5079705;28;20032;-68
2024/02/03 01:30:12;;;;;;;1.17;0.90;;;21.50;48.50;;;;;;5078988;28;20060;-68
2024/02/03 01:32:38;;;;;;;1.42;0.80;;;21.40;48.40;;;;;;5077168;28;20026;-68
2024/02/03 01:35:04;;;;;;;0.88;0.70;;;21.40;48.90;;;;;;5080750;28;20047;-68
2024/02/03 01:37:30;;;;;;;1.40;0.90;;;21.40;48.40;;;;;;5080546;28;20395;-68
2024/02/03 01:39:55;;;;;;;1.10;0.70;;;21.40;48.40;;;;;;5080647;28;20028;-69
2024/02/03 01:42:21;;;;;;;1.27;0.75;;;21.40;48.50;;;;;;5080198;28;20563;-68
2024/02/03 01:44:47;;;;;;;1.00;0.80;;;21.40;48.50;;;;;;5079239;28;20025;-68
2024/02/03 01:47:13;;;;;;;1.83;1.00;;;21.40;48.50;;;;;;5077957;28;20115;-68
2024/02/03 01:49:39;;;;;;;1.30;0.90;;;21.30;48.50;;;;;;5068611;28;20086;-68
2024/02/03 01:52:06;;;;;;;1.40;0.80;;;21.30;48.50;;;;;;5080806;28;20488;-68
2024/02/03 01:54:34;;;;;;;1.58;0.80;;;21.30;48.50;;;;;;5079948;28;20050;-68
2024/02/03 01:57:00;;;;;;;1.70;0.98;;;21.30;48.50;;;;;;5079214;28;20022;-68
2024/02/03 01:59:28;;;;;;;1.35;0.90;;;21.30;48.50;;;;;;5061763;28;20035;-68
2024/02/03 02:01:59;;;;;;;2.03;1.10;;;21.30;48.50;;;;;;5081529;28;20383;-67
2024/02/03 02:04:29;;;;;;;1.63;0.88;;;21.30;48.50;;;;;;5078800;28;20305;-68
2024/02/03 02:06:55;;;;;;;1.38;0.80;;;21.30;48.50;;;;;;5080797;28;20028;-68
2024/02/03 02:09:22;;;;;;;1.30;0.90;;;21.20;48.40;;;;;;5079850;28;20020;-68
2024/02/03 02:11:47;;;;;;;1.52;0.93;;;21.20;48.50;;;;;;5079497;28;20031;-69
2024/02/03 02:14:13;;;;;;;1.30;0.80;;;21.20;48.50;;;;;;5077528;28;20035;-68
2024/02/03 02:16:39;;;;;;;1.90;1.00;;;21.20;48.50;;;;;;5081042;28;20033;-69
2024/02/03 02:19:05;;;;;;;1.27;0.80;;;21.20;48.50;;;;;;5079359;28;20062;-69
2024/02/03 02:21:30;;;;;;;1.67;0.90;;;21.20;48.50;;;;;;5078610;28;20074;-69
2024/02/03 02:23:57;;;;;;;0.88;0.75;;;21.20;48.50;;;;;;5078659;28;20078;-63
2024/02/03 02:26:25;;;;;;;1.27;0.90;;;21.20;48.50;;;;;;5078730;28;20080;-68
2024/02/03 02:28:52;;;;;;;1.13;0.80;;;21.20;48.50;;;;;;5078218;28;20118;-68
2024/02/03 02:31:17;;;;;;;1.10;0.85;;;21.20;48.50;;;;;;5078551;28;20032;-68
2024/02/03 02:33:43;;;;;;;1.45;0.90;;;21.10;48.50;;;;;;5067832;28;20398;-69
2024/02/03 02:36:09;;;;;;;1.98;0.90;;;21.10;48.50;;;;;;5081251;28;20103;-68
2024/02/03 02:38:34;;;;;;;1.80;0.88;;;21.10;48.50;;;;;;5076857;28;20027;-68
2024/02/03 02:41:00;;;;;;;1.42;0.82;;;21.10;48.50;;;;;;5078599;28;20039;-68
2024/02/03 02:43:26;;;;;;;0.73;0.70;;;21.10;48.50;;;;;;5078455;28;20032;-68
2024/02/03 02:45:51;;;;;;;1.08;0.75;;;21.10;48.50;;;;;;5079962;28;20024;-68
2024/02/03 02:48:17;;;;;;;1.65;0.80;;;21.10;48.50;;;;;;5076684;28;20024;-68
2024/02/03 02:50:43;;;;;;;1.48;0.80;;;21.10;48.50;;;;;;5079770;28;20051;-68
2024/02/03 02:53:08;;;;;;;1.23;0.90;;;21.10;48.60;;;;;;5077994;28;20372;-68
2024/02/03 02:55:34;;;;;;;1.58;0.90;;;21.10;48.60;;;;;;5079874;28;20047;-68
2024/02/03 02:57:59;;;;;;;1.40;0.88;;;21.00;48.50;;;;;;5079868;28;20032;-68
2024/02/03 03:00:25;;;;;;;1.10;0.70;;;21.00;48.50;;;;;;5081087;28;20033;-68
2024/02/03 03:02:51;;;;;;;1.35;0.73;;;21.00;48.50;;;;;;5081750;28;20125;-68
2024/02/03 03:05:16;;;;;;;0.85;0.70;;;21.00;48.60;;;;;;5085071;28;20023;-68
2024/02/03 03:07:43;;;;;;;1.20;0.90;;;21.00;48.60;;;;;;5082118;28;20078;-68
2024/02/03 03:10:09;;;;;;;1.60;0.90;;;21.00;48.60;;;;;;5082006;28;20117;-68
2024/02/03 03:12:35;;;;;;;1.33;0.75;;;21.00;48.60;;;;;;5083438;28;20083;-68
2024/02/03 03:15:00;;;;;;;1.40;0.90;;;21.00;48.60;;;;;;5081867;28;20441;-68
2024/02/03 03:17:26;;;;;;;1.50;0.80;;;21.00;48.60;;;;;;5080935;28;20060;-68
2024/02/03 03:19:52;;;;;;;1.38;0.85;;;21.00;48.60;;;;;;5081316;28;20403;-68
2024/02/03 03:22:18;;;;;;;1.00;0.70;;;21.00;48.70;;;;;;5084409;28;20020;-68
2024/02/03 03:24:44;;;;;;;0.80;0.80;;;20.90;48.60;;;;;;5083177;28;20028;-65
2024/02/03 03:27:10;;;;;;;1.05;0.80;;;20.90;48.60;;;;;;5081100;28;20519;-66
2024/02/03 03:29:36;;;;;;;0.88;0.70;;;20.90;48.60;;;;;;5082961;28;20040;-66
2024/02/03 03:32:02;;;;;;;1.00;0.73;;;20.90;48.60;;;;;;5081351;28;20405;-65
2024/02/03 03:34:28;;;;;;;0.80;0.70;;;20.90;48.60;;;;;;5081275;28;20071;-69
2024/02/03 03:36:53;;;;;;;1.63;0.88;;;20.90;48.60;;;;;;5063313;28;20460;-69
2024/02/03 03:39:19;;;;;;;1.63;0.80;;;20.90;48.60;;;;;;5082793;28;20051;-68
2024/02/03 03:41:44;;;;;;;1.90;0.77;;;20.90;48.90;;;;;;5080986;28;20172;-69
2024/02/03 03:44:10;;;;;;;0.88;0.70;;;20.90;48.70;;;;;;5080115;28;20020;-68
2024/02/03 03:46:36;;;;;;;1.25;0.80;;;20.90;48.70;;;;;;5081733;28;20383;-69
2024/02/03 03:49:02;;;;;;;0.95;0.70;;;20.90;48.70;;;;;;5061131;28;20025;-68
2024/02/03 03:51:27;;;;;;;0.75;0.70;;;20.80;48.60;;;;;;5081459;28;20071;-69
2024/02/03 03:53:53;;;;;;;0.90;0.70;;;20.80;48.60;;;;;;5080682;28;20035;-68
2024/02/03 03:56:18;;;;;;;0.80;0.70;;;20.90;48.70;;;;;;5079421;28;20025;-69
2024/02/03 03:58:44;;;;;;;0.80;0.70;;;20.80;48.70;;;;;;5081533;28;20506;-69
2024/02/03 04:01:10;;;;;;;1.15;0.80;;;20.80;48.70;;;;;;5080909;28;20028;-68
2024/02/03 04:03:41;;;;;;;0.98;0.80;;;20.80;48.70;;;;;;5079827;28;21175;-67
2024/02/03 04:06:06;;;;;;;1.25;0.90;;;20.80;48.70;;;;;;5079998;28;20530;-68
2024/02/03 04:08:33;;;;;;;1.02;0.70;;;20.70;48.60;;;;;;5082090;28;20095;-69
2024/02/03 04:10:59;;;;;;;1.05;0.73;;;20.80;48.70;;;;;;5073664;28;20031;-68
2024/02/03 04:13:25;;;;;;;0.90;0.65;;;20.80;48.70;;;;;;5078703;28;20029;-69
2024/02/03 04:15:51;;;;;;;1.08;0.70;;;20.70;48.70;;;;;;5081812;28;20031;-68
2024/02/03 04:18:17;;;;;;;1.02;0.70;;;20.80;48.80;;;;;;5081411;28;20069;-69
2024/02/03 04:20:43;;;;;;;1.15;0.80;;;20.80;48.70;;;;;;5079032;28;20480;-69
2024/02/03 04:23:08;;;;;;;1.52;0.70;;;20.80;48.80;;;;;;5083502;28;20031;-69
2024/02/03 04:25:34;;;;;;;0.95;0.70;;;20.80;48.80;;;;;;5073382;28;20360;-69
2024/02/03 04:27:59;;;;;;;1.20;0.80;;;20.80;48.80;;;;;;5082347;28;20035;-67
2024/02/03 04:30:25;;;;;;;1.10;0.70;;;20.70;48.70;;;;;;5081636;28;20425;-68
2024/02/03 04:32:52;;;;;;;1.05;0.70;;;20.70;48.70;;;;;;5080854;28;20106;-68
2024/02/03 04:35:18;;;;;;;0.80;0.60;;;20.70;48.80;;;;;;5079681;28;20082;-68
2024/02/03 04:37:43;;;;;;;1.02;0.70;;;20.70;48.80;;;;;;5081146;28;20414;-68
2024/02/03 04:40:09;;;;;;;0.93;0.60;;;20.70;48.80;;;;;;5071663;28;20023;-68
2024/02/03 04:42:35;;;;;;;1.05;0.80;;;20.70;48.80;;;;;;5081692;28;20492;-68
2024/02/03 04:45:01;;;;;;;1.75;0.80;;;20.70;48.80;;;;;;5080212;28;20031;-65
2024/02/03 04:47:26;;;;;;;0.80;0.70;;;20.70;48.80;;;;;;5080866;28;20023;-66
2024/02/03 04:49:52;;;;;;;0.95;0.85;;;20.70;48.80;;;;;;5079708;28;20444;-65
2024/02/03 04:52:17;;;;;;;1.10;0.63;;;20.70;48.80;;;;;;5082039;28;20064;-65
2024/02/03 04:54:43;;;;;;;1.00;0.70;;;20.70;48.90;;;;;;5081914;28;20020;-63
2024/02/03 04:57:09;;;;;;;1.15;0.77;;;20.60;48.80;;;;;;5071356;28;20437;-63
2024/02/03 04:59:34;;;;;;;0.98;0.68;;;20.60;48.80;;;;;;5078151;28;20024;-64
2024/02/03 05:02:00;;;;;;;0.60;0.60;;;20.60;48.90;;;;;;5079841;28;20024;-63
2024/02/03 05:04:26;;;;;;;1.58;0.85;;;20.60;48.90;;;;;;5077075;28;20480;-65
2024/02/03 05:06:52;;;;;;;0.98;0.68;;;20.60;48.90;;;;;;5081457;28;20025;-64
2024/02/03 05:09:17;;;;;;;0.65;0.63;;;20.60;48.90;;;;;;5071257;28;20369;-64
2024/02/03 05:11:43;;;;;;;1.17;0.80;;;20.60;48.90;;;;;;5080261;28;20143;-63
2024/02/03 05:14:08;;;;;;;0.68;0.60;;;20.60;48.90;;;;;;5071568;28;20074;-63
2024/02/03 05:16:34;;;;;;;0.90;0.70;;;20.60;48.90;;;;;;5070825;28;20066;-63
2024/02/03 05:19:01;;;;;;;1.45;0.80;;;20.60;48.90;;;;;;5079927;28;20034;-63
2024/02/03 05:21:27;;;;;;;1.10;0.90;;;20.60;48.90;;;;;;5081473;28;20051;-63
2024/02/03 05:23:53;;;;;;;0.73;0.68;;;20.60;49.00;;;;;;5061749;28;20060;-64
2024/02/03 05:26:18;;;;;;;0.95;0.70;;;20.60;49.00;;;;;;5079744;28;20039;-64
2024/02/03 05:28:44;;;;;;;0.95;0.73;;;20.50;48.90;;;;;;5080562;28;20097;-62
2024/02/03 05:31:10;;;;;;;1.02;0.70;;;20.50;49.00;;;;;;5081055;28;20028;-64
2024/02/03 05:33:35;;;;;;;0.93;0.80;;;20.50;49.00;;;;;;5081600;28;20055;-63
2024/02/03 05:36:01;;;;;;;0.82;0.70;;;20.50;49.00;;;;;;5079960;28;20039;-63
2024/02/03 05:38:27;;;;;;;0.85;0.70;;;20.50;49.00;;;;;;5079486;28;20032;-63
2024/02/03 05:40:52;;;;;;;0.82;0.80;;;20.50;49.00;;;;;;5077759;28;20035;-63
2024/02/03 05:43:18;;;;;;;0.73;0.65;;;20.50;49.10;;;;;;5080841;28;20039;-64
2024/02/03 05:45:44;;;;;;;0.70;0.60;;;20.50;49.00;;;;;;5078873;28;20024;-63
2024/02/03 05:48:09;;;;;;;0.85;0.60;;;20.50;49.00;;;;;;5079838;28;20113;-63
2024/02/03 05:50:35;;;;;;;0.80;0.80;;;20.50;49.10;;;;;;5078567;28;20075;-63
2024/02/03 05:53:00;;;;;;;1.10;0.90;;;20.50;49.10;;;;;;5081055;28;20488;-63
2024/02/03 05:55:26;;;;;;;1.02;0.75;;;20.50;49.10;;;;;;5079470;28;20024;-68
2024/02/03 05:57:54;;;;;;;0.70;0.63;;;20.40;49.00;;;;;;5079129;28;20097;-68
2024/02/03 06:00:20;;;;;;;0.75;0.70;;;20.40;49.10;;;;;;5069379;28;20031;-68
2024/02/03 06:02:46;;;;;;;0.82;0.70;;;20.40;49.10;;;;;;5078413;28;20102;-68
2024/02/03 06:05:13;;;;;;;1.00;0.80;;;20.40;49.20;;;;;;5068046;28;20089;-68
2024/02/03 06:07:39;;;;;;;0.98;0.70;;;20.40;49.10;;;;;;5079711;28;20080;-68
2024/02/03 06:10:06;;;;;;;1.20;0.80;;;20.40;49.20;;;;;;5075330;28;20102;-69
2024/02/03 06:12:31;;;;;;;1.42;0.80;;;20.40;49.20;;;;;;5060100;28;20040;-68
2024/02/03 06:14:57;;;;;;;0.70;0.70;;;20.40;49.20;;;;;;5074868;28;20032;-69
2024/02/03 06:17:23;;;;;;;0.80;0.70;;;20.40;49.20;;;;;;5080592;28;20467;-68
2024/02/03 06:19:50;;;;;;;1.20;0.68;;;20.40;49.20;;;;;;5078097;28;20028;-69
2024/02/03 06:22:16;;;;;;;1.00;0.85;;;20.40;49.40;;;;;;5079876;28;20460;-69
2024/02/03 06:24:41;;;;;;;1.42;0.85;;;20.40;49.20;;;;;;5079143;28;20032;-68
2024/02/03 06:27:07;;;;;;;1.55;0.80;;;20.40;49.30;;;;;;5070397;28;20094;-69
2024/02/03 06:29:33;;;;;;;1.05;0.80;;;20.40;49.20;;;;;;5058274;28;20031;-69
2024/02/03 06:31:58;;;;;;;1.20;0.80;;;20.40;49.20;;;;;;5079350;28;20025;-68
2024/02/03 06:34:24;;;;;;;0.60;0.60;;;20.40;49.30;;;;;;5078631;28;20038;-68
2024/02/03 06:36:50;;;;;;;0.95;0.80;;;20.40;49.30;;;;;;5077182;28;20028;-68
2024/02/03 06:39:16;;;;;;;1.10;0.85;;;20.40;49.30;;;;;;5078624;28;20575;-69
2024/02/03 06:41:42;;;;;;;0.80;0.77;;;20.40;49.30;;;;;;5079498;28;20036;-69
2024/02/03 06:44:09;;;;;;;1.20;0.80;;;20.40;49.30;;;;;;5060518;28;20195;-69
2024/02/03 06:46:35;;;;;;;1.00;0.80;;;20.40;49.30;;;;;;5078587;28;20489;-68
2024/02/03 06:49:00;;;;;;;1.20;0.90;;;20.30;49.30;;;;;;5061637;28;20027;-69
2024/02/03 06:51:26;;;;;;;1.55;1.00;;;20.30;49.30;;;;;;5075741;28;20055;-69
2024/02/03 06:53:51;;;;;;;1.48;0.82;;;20.30;49.30;;;;;;5077045;28;20476;-69
2024/02/03 06:56:17;;;;;;;1.05;0.80;;;20.30;49.30;;;;;;5068013;28;20032;-68
2024/02/03 06:58:43;;;;;;;1.23;0.90;;;20.30;49.40;;;;;;5080241;28;20021;-68
2024/02/03 07:01:08;;;;;;;1.58;1.00;;;20.30;49.30;;;;;;5078691;28;20060;-68
2024/02/03 07:03:34;;;;;;;1.25;0.88;;;20.30;49.30;;;;;;5077018;28;20058;-68
2024/02/03 07:06:00;;;;;;;1.10;0.88;;;20.30;49.30;;;;;;5076709;28;20024;-65
2024/02/03 07:08:25;;;;;;;1.27;0.90;;;20.30;49.30;;;;;;5079400;28;20016;-66
2024/02/03 07:10:51;;;;;;;1.98;1.15;;;20.30;49.90;;;;;;5061680;28;20040;-66
2024/02/03 07:13:16;;;;;;;1.15;0.82;;;20.30;49.30;;;;;;5080964;28;20114;-66
2024/02/03 07:15:42;;;;;;;1.10;0.75;;;20.30;49.30;;;;;;5080531;28;20028;-65
2024/02/03 07:18:08;;;;;;;1.15;0.80;;;20.30;49.40;;;;;;5077387;28;20028;-66
2024/02/03 07:20:33;;;;;;;1.55;0.90;;;20.30;49.30;;;;;;5079752;28;20040;-65
2024/02/03 07:22:59;;;;;;;1.50;1.10;;;20.30;49.30;;;;;;5076681;28;21018;-66
2024/02/03 07:25:24;;;;;;;1.60;1.05;;;20.30;49.30;;;;;;5077631;28;20055;-67
2024/02/03 07:27:50;;;;;;;1.30;1.00;;;20.30;49.30;;;;;;5077897;28;20135;-65
2024/02/03 07:30:15;;;;;;;2.10;0.90;;;20.30;49.30;;;;;;5080159;28;20032;-66
2024/02/03 07:32:42;;;;;;;1.73;1.00;;;20.20;49.30;;;;;;5078274;28;20036;-67
2024/02/03 07:35:08;;;;;;;1.45;0.90;;;20.30;49.90;;;;;;5077925;28;20032;-65
2024/02/03 07:37:35;;;;;;;1.30;1.10;;;20.30;49.40;;;;;;5077764;28;20388;-66
2024/02/03 07:40:01;;;;;;;1.15;0.80;;;20.20;49.30;;;;;;5078040;28;20026;-65
2024/02/03 07:42:26;;;;;;;1.23;0.90;;;20.30;49.40;;;;;;5060002;28;20024;-66
2024/02/03 07:44:52;;;;;;;1.85;1.00;;;20.20;49.40;;;;;;5079415;28;20123;-65
2024/02/03 07:47:18;;;;;;;2.00;1.05;;;20.30;49.40;;;;;;5079734;28;20090;-65
2024/02/03 07:49:43;;;;;;;1.35;1.00;;;20.20;49.40;;;;;;5059740;28;20031;-66
2024/02/03 07:52:09;;;;;;;1.48;0.90;;;20.20;49.40;;;;;;5082149;28;20480;-66
2024/02/03 07:54:34;;;;;;;1.38;0.90;;;20.20;49.40;;;;;;5082069;28;20089;-65
2024/02/03 07:57:00;;;;;;;1.52;1.02;;;20.30;49.40;;;;;;5081989;28;20412;-67
2024/02/03 07:59:27;;;;;;;1.25;0.93;;;20.30;49.40;;;;;;5080569;28;20030;-66
2024/02/03 08:01:53;;;;;;;1.50;1.10;;;20.20;49.40;;;;;;5064253;28;20031;-66
2024/02/03 08:04:19;;;;;;;1.92;1.00;;;20.20;49.40;;;;;;5082289;28;20106;-66
2024/02/03 08:06:44;;;;;;;1.70;1.10;;;20.20;49.40;;;;;;5080428;28;20024;-68
2024/02/03 08:09:10;;;;;;;1.75;1.00;;;20.20;49.40;;;;;;5079533;28;20036;-68
2024/02/03 08:11:36;;;;;;;1.67;1.15;;;20.20;49.40;;;;;;5082228;28;20509;-68
2024/02/03 08:14:01;;;;;;;1.35;1.00;;;20.20;49.40;;;;;;5080251;28;20115;-68
2024/02/03 08:16:27;;;;;;;1.45;1.00;;;20.20;49.40;;;;;;5083253;28;20473;-66
2024/02/03 08:18:52;;;;;;;2.30;1.13;;;20.20;49.40;;;;;;5080918;28;20401;-66
2024/02/03 08:21:19;;;;;;;1.45;0.90;;;20.20;49.50;;;;;;5076897;28;20516;-66
2024/02/03 08:23:44;;;;;;;1.38;1.00;;;20.20;49.40;;;;;;5071612;28;20024;-66
2024/02/03 08:26:12;;;;;;;1.55;1.00;;;20.20;49.40;;;;;;5078343;28;20099;-68
2024/02/03 08:28:37;;;;;;;1.90;0.90;;;20.20;49.40;;;;;;5076215;28;20029;-68
2024/02/03 08:31:03;;;;;;;1.60;1.00;;;20.20;49.30;;;;;;5079500;28;20031;-68
2024/02/03 08:33:31;;;;;;;1.65;1.10;;;20.20;49.40;;;;;;5079827;28;20032;-68
2024/02/03 08:35:56;;;;;;;1.35;0.95;;;20.20;49.30;;;;;;5061126;28;20031;-68
2024/02/03 08:38:22;;;;;;;2.25;1.20;;;20.20;49.80;;;;;;5062686;28;20028;-68
2024/02/03 08:40:50;;;;;;;1.63;1.15;;;20.20;49.30;;;;;;5083466;28;20076;-68
2024/02/03 08:43:15;;;;;;;3.13;1.40;;;20.10;49.20;;;;;;5062838;28;20025;-68
2024/02/03 08:45:42;;;;;;;2.50;1.65;;;20.20;49.20;;;;;;5078983;28;20029;-68
2024/02/03 08:48:08;;;;;;;2.58;1.33;;;20.20;49.20;;;;;;5080227;28;20040;-68
2024/02/03 08:50:33;;;;;;;1.92;1.30;;;20.20;49.10;;;;;;5079556;28;20039;-68
2024/02/03 08:52:59;;;;;;;2.20;1.40;;;20.10;49.10;;;;;;5070700;28;20049;-68
2024/02/03 08:55:25;;;;;;;1.63;1.23;;;20.20;49.10;;;;;;5081337;28;20035;-67
2024/02/03 08:57:50;;;;;;;3.35;1.40;;;20.10;49.10;;;;;;5081249;28;20036;-68
2024/02/03 09:00:17;;;;;;;2.42;1.40;;;20.10;49.00;;;;;;5077949;28;20036;-67
2024/02/03 09:02:42;;;;;;;2.60;1.60;;;20.10;48.90;;;;;;5080071;28;20024;-67
2024/02/03 09:05:08;;;;;;;2.67;1.60;;;20.10;48.90;;;;;;5079245;28;20036;-68
2024/02/03 09:07:36;;;;;;;2.33;1.60;;;20.10;49.30;;;;;;5078336;28;20028;-68
2024/02/03 09:10:03;;;;;;;2.97;1.60;;;20.10;49.30;;;;;;5081663;28;20048;-68
2024/02/03 09:12:29;;;;;;;2.70;1.50;;;20.10;48.80;;;;;;5079353;28;20032;-68
2024/02/03 09:14:55;;;;;;;2.28;1.50;;;20.10;48.80;;;;;;5079369;28;20104;-68
2024/02/03 09:17:20;;;;;;;2.55;1.50;;;20.10;48.70;;;;;;5078296;28;20253;-68
2024/02/03 09:19:47;;;;;;;2.85;1.60;;;20.10;48.80;;;;;;5078077;28;20032;-68
2024/02/03 09:22:13;;;;;;;2.83;1.50;;;20.10;48.70;;;;;;5078186;28;20036;-67
2024/02/03 09:24:39;;;;;;;2.63;1.63;;;20.10;48.80;;;;;;5079983;28;20025;-67
2024/02/03 09:27:05;;;;;;;2.10;1.40;;;20.10;48.70;;;;;;5078445;28;20370;-66
2024/02/03 09:29:31;;;;;;;2.90;1.90;;;20.10;48.80;;;;;;5078168;28;20039;-66
2024/02/03 09:31:56;;;;;;;3.38;1.63;;;20.10;48.80;;;;;;5079066;28;20107;-65
2024/02/03 09:34:22;;;;;;;2.45;1.50;;;20.10;48.70;;;;;;5080058;28;20029;-66
2024/02/03 09:36:48;;;;;;;2.50;1.40;;;20.10;48.70;;;;;;5080242;28;20032;-65
2024/02/03 09:39:14;;;;;;;2.33;1.40;;;20.10;48.70;;;;;;5070231;28;20512;-63
2024/02/03 09:41:40;;;;;;;2.55;1.50;;;20.10;48.70;;;;;;5080239;28;20425;-65
2024/02/03 09:44:06;;;;;;;3.33;1.70;;;20.10;48.70;;;;;;5081229;28;20456;-63
2024/02/03 09:46:32;;;;;;;2.97;1.67;;;20.10;48.70;;;;;;5079507;28;20102;-65
2024/02/03 09:48:58;;;;;;;2.53;1.70;;;20.10;48.70;;;;;;5078931;28;20500;-62
2024/02/03 09:51:24;;;;;;;2.70;1.50;;;20.10;48.70;;;;;;5075894;28;20979;-63
2024/02/03 09:53:52;;;;;;;2.70;1.42;;;20.10;48.70;;;;;;5068751;28;20086;-63
2024/02/03 09:56:18;;;;;;;2.28;1.50;;;20.10;48.70;;;;;;5079341;28;20476;-62
2024/02/03 09:58:44;;;;;;;2.33;1.45;;;20.10;48.70;;;;;;5079198;28;20024;-62
2024/02/03 10:01:10;;;;;;;2.60;1.50;;;20.10;48.70;;;;;;5068934;28;20032;-63
2024/02/03 10:03:35;;;;;;;2.90;1.45;;;20.10;48.70;;;;;;5068099;28;20029;-63
2024/02/03 10:06:03;;;;;;;2.72;1.50;;;20.10;48.80;;;;;;5078446;28;20388;-63
2024/02/03 10:08:29;;;;;;;2.60;1.40;;;20.10;48.80;;;;;;5085346;28;20034;-62
2024/02/03 10:10:56;;;;;;;3.75;1.50;;;20.10;48.90;;;;;;5077526;28;20480;-62
2024/02/03 10:13:23;;;;;;;2.67;1.40;;;20.10;49.00;;;;;;5069020;28;20069;-63
2024/02/03 10:16:15;;;;;;;2.30;1.50;;;20.10;49.00;;;;;;5069879;28;20574;-62
2024/02/03 10:18:41;;;;;;;2.67;1.80;;;20.10;49.10;;;;;;5089826;28;20036;-63
2024/02/03 10:21:07;;;;;;;2.70;1.60;;;20.10;49.10;;;;;;5062267;28;20109;-68
2024/02/03 10:23:32;;;;;;;2.80;1.52;;;20.10;49.20;;;;;;5079101;28;20059;-62
2024/02/03 10:25:59;;;;;;;2.30;1.42;;;20.10;49.20;;;;;;5076584;28;20484;-69
2024/02/03 10:28:25;;;;;;;2.30;1.30;;;20.10;49.20;;;;;;5079891;28;20090;-70
2024/02/03 10:30:53;;;;;;;2.88;1.55;;;20.10;49.30;;;;;;5068788;28;20876;-70
2024/02/03 10:33:22;;;;;;;2.63;1.35;;;20.10;49.30;;;;;;5092848;28;20040;-69
2024/02/03 10:35:49;;;;;;;1.98;1.23;;;20.10;49.80;;;;;;5060545;28;20396;-65
2024/02/03 10:38:15;;;;;;;3.13;1.55;;;20.10;49.40;;;;;;5077926;28;20028;-65
2024/02/03 10:40:41;;;;;;;1.75;1.20;;;20.10;49.40;;;;;;5079187;28;20357;-65
2024/02/03 10:43:17;;;;;;;1.98;1.27;;;20.10;49.40;;;;;;5068574;28;20021;-65
2024/02/03 10:45:45;;;;;;;1.88;1.27;;;20.10;49.40;;;;;;5078229;28;20078;-67
2024/02/03 10:48:17;;;;;;;2.25;1.40;;;20.10;49.40;;;;;;5076879;28;20020;-67
2024/02/03 10:50:45;;;;;;;2.13;1.30;;;20.10;49.50;;;;;;5077723;28;20522;-67
2024/02/03 10:53:25;;;;;;;2.55;1.45;;;20.10;49.40;;;;;;5076782;28;20024;-67
2024/02/03 10:55:56;;;;;;;2.63;1.40;;;20.10;49.50;;;;;;5077775;28;20469;-67
2024/02/03 10:58:26;;;;;;;2.70;1.60;;;20.10;49.50;;;;;;5079606;28;20464;-67
2024/02/03 11:00:53;;;;;;;2.85;1.40;;;20.10;49.50;;;;;;5077627;28;20060;-67
2024/02/03 11:03:22;;;;;;;2.55;1.30;;;20.10;49.60;;;;;;5078596;28;20020;-67
2024/02/03 11:05:51;;;;;;;2.13;1.50;;;20.10;49.50;;;;;;5080609;28;20112;-67
2024/02/03 11:08:19;;;;;;;2.20;1.20;;;20.10;49.60;;;;;;5077013;28;20155;-67
2024/02/03 11:10:51;;;;;;;2.20;1.40;;;20.10;49.60;;;;;;5080451;28;20512;-67
2024/02/03 11:13:24;;;;;;;2.13;1.20;;;20.10;49.60;;;;;;5079335;28;20032;-67
2024/02/03 11:15:57;;;;;;;2.67;1.50;;;20.20;49.70;;;;;;5077761;28;20087;-67
2024/02/03 11:18:24;;;;;;;2.53;1.58;;;20.10;49.70;;;;;;5068326;28;20031;-67
2024/02/03 11:20:50;;;;;;;2.38;1.40;;;20.20;49.70;;;;;;5079709;28;20056;-67
2024/02/03 11:23:15;;;;;;;1.83;1.20;;;20.10;49.70;;;;;;5079348;28;20020;-67
2024/02/03 11:25:46;;;;;;;2.20;1.25;;;20.10;49.70;;;;;;5080670;28;20031;-67
2024/02/03 11:28:12;;;;;;;3.15;1.40;;;20.10;49.70;;;;;;5083026;28;20157;-67
2024/02/03 11:30:38;;;;;;;2.83;1.40;;;20.10;49.70;;;;;;5081709;28;20035;-67
2024/02/03 11:33:05;;;;;;;2.72;1.40;;;20.10;49.70;;;;;;5081572;28;20032;-67
2024/02/03 11:35:31;;;;;;;2.00;1.20;;;20.10;49.70;;;;;;5081542;28;20476;-70
2024/02/03 11:38:09;;;;;;;1.52;1.00;;;20.10;49.70;;;;;;5080208;28;20437;-70
2024/02/03 11:40:42;;;;;;;1.95;1.38;;;20.10;49.70;;;;;;5080977;28;20023;-71
2024/02/03 11:43:09;;;;;;;3.55;1.30;;;20.10;49.80;;;;;;5082793;28;20522;-72
2024/02/03 11:45:39;;;;;;;2.30;1.20;;;20.10;49.70;;;;;;5080536;28;20373;-65
2024/02/03 11:48:06;;;;;;;2.40;1.27;;;20.20;49.80;;;;;;5081877;28;20025;-65
2024/02/03 11:50:31;;;;;;;2.45;1.30;;;20.10;49.80;;;;;;5078865;28;20032;-65
2024/02/03 11:52:59;;;;;;;1.73;1.10;;;20.20;49.80;;;;;;5077920;28;20391;-66
2024/02/03 11:55:24;;;;;;;1.90;1.20;;;20.20;49.70;;;;;;5082486;28;20040;-66
2024/02/03 11:57:50;;;;;;;1.80;1.10;;;20.20;49.80;;;;;;5083397;28;20024;-65
2024/02/03 12:00:18;;;;;;;3.47;1.05;;;20.20;49.70;;;;;;5064282;28;20035;-66
2024/02/03 12:02:45;;;;;;;1.40;1.00;;;20.20;49.70;;;;;;5079715;28;20031;-65
2024/02/03 12:05:11;;;;;;;1.90;1.10;;;20.20;49.70;;;;;;5082824;28;20020;-66
2024/02/03 12:07:38;;;;;;;1.83;1.10;;;20.20;49.70;;;;;;5082635;28;20024;-64
2024/02/03 12:10:08;;;;;;;1.45;1.00;;;20.20;49.70;;;;;;5079238;28;20043;-65
2024/02/03 12:12:35;;;;;;;1.80;1.10;;;20.20;49.70;;;;;;5079538;28;20501;-65
2024/02/03 12:15:01;;;;;;;2.80;1.45;;;20.20;49.70;;;;;;5081651;28;20383;-65
2024/02/03 12:17:27;;;;;;;1.50;1.10;;;20.20;49.80;;;;;;5079731;28;20107;-65
2024/02/03 12:19:54;;;;;;;2.55;1.20;;;20.20;49.70;;;;;;5079362;28;20449;-66
2024/02/03 12:22:20;;;;;;;2.65;1.30;;;20.20;49.80;;;;;;5079649;28;20119;-65
2024/02/03 12:24:46;;;;;;;1.80;1.10;;;20.20;49.80;;;;;;5061971;28;20029;-65
2024/02/03 12:27:12;;;;;;;1.75;1.17;;;20.20;49.80;;;;;;5081632;28;20137;-65
2024/02/03 12:29:40;;;;;;;1.98;1.10;;;20.20;49.80;;;;;;5081643;28;20036;-65
2024/02/03 12:32:06;;;;;;;1.55;1.00;;;20.20;49.80;;;;;;5080459;28;20034;-65
2024/02/03 12:34:33;;;;;;;1.73;1.17;;;20.20;49.70;;;;;;5078577;28;20393;-66
2024/02/03 12:36:59;;;;;;;2.17;1.17;;;20.20;49.80;;;;;;5081480;28;20078;-66
2024/02/03 12:39:24;;;;;;;2.47;1.10;;;20.20;49.80;;;;;;5079684;28;20206;-66
2024/02/03 12:41:50;;;;;;;2.20;1.10;;;20.20;49.80;;;;;;5077446;28;20067;-65